createdAt,value
2017-09-19T00:04:15.447Z,13.80
2017-09-19T00:09:18.929Z,12.77
2017-09-19T00:14:20.933Z,12.10
2017-09-19T00:19:23.085Z,12.67
2017-09-19T00:24:25.119Z,13.47
2017-09-19T00:29:27.127Z,13.70
2017-09-19T00:34:29.134Z,13.30
2017-09-19T00:39:31.631Z,11.07
2017-09-19T00:44:33.673Z,12.70
2017-09-19T00:49:35.744Z,13.50
2017-09-19T00:54:39.129Z,13.50
2017-09-19T00:59:42.353Z,15.90
2017-09-19T01:04:44.456Z,24.17
2017-09-19T01:09:46.618Z,18.90
2017-09-19T01:14:48.716Z,18.50
2017-09-19T01:19:50.751Z,18.77
2017-09-19T01:24:52.806Z,17.90
2017-09-19T01:29:54.899Z,19.73
2017-09-19T01:34:56.947Z,16.80
2017-09-19T01:39:59.007Z,16.27
2017-09-19T01:45:01.069Z,23.03
2017-09-19T01:50:03.254Z,16.50
2017-09-19T01:55:05.344Z,21.30
2017-09-19T02:00:07.456Z,19.97
2017-09-19T02:05:09.527Z,19.13
2017-09-19T02:10:11.521Z,20.00
2017-09-19T02:15:14.351Z,17.03
2017-09-19T02:20:16.428Z,18.10
2017-09-19T02:25:18.415Z,25.17
2017-09-19T02:30:20.498Z,24.43
2017-09-19T02:35:22.541Z,24.07
2017-09-19T02:40:24.662Z,19.90
2017-09-19T02:45:26.652Z,24.90
2017-09-19T02:50:28.658Z,24.33
2017-09-19T02:55:31.555Z,20.90
2017-09-19T03:00:33.556Z,20.27
2017-09-19T03:05:35.571Z,29.80
2017-09-19T03:10:37.627Z,22.00
2017-09-19T03:15:39.908Z,22.17
2017-09-19T03:20:43.020Z,21.23
2017-09-19T03:25:45.123Z,23.23
2017-09-19T03:30:47.158Z,18.03
2017-09-19T03:35:53.820Z,20.97
2017-09-19T03:40:56.167Z,23.10
2017-09-19T03:45:58.191Z,23.10
2017-09-19T03:51:00.208Z,24.43
2017-09-19T03:56:02.290Z,29.37
2017-09-19T04:01:07.694Z,24.87
2017-09-19T04:06:09.736Z,24.53
2017-09-19T04:11:11.851Z,27.43
2017-09-19T04:16:14.617Z,22.80
2017-09-19T04:21:17.398Z,30.57
2017-09-19T04:26:19.412Z,23.80
2017-09-19T04:31:25.220Z,23.97
2017-09-19T04:36:27.332Z,23.70
2017-09-19T04:41:29.479Z,20.33
2017-09-19T04:46:31.647Z,21.17
2017-09-19T04:51:33.703Z,28.80
2017-09-19T04:56:35.704Z,22.40
2017-09-19T05:01:41.505Z,26.70
2017-09-19T05:06:44.730Z,22.70
2017-09-19T05:11:47.417Z,25.80
2017-09-19T05:16:50.628Z,20.13
2017-09-19T05:21:59.133Z,20.70
2017-09-19T05:27:01.183Z,23.23
2017-09-19T05:32:03.322Z,29.50
2017-09-19T05:37:05.486Z,26.23
2017-09-19T05:42:07.513Z,27.83
2017-09-19T05:47:09.541Z,24.17
2017-09-19T05:52:12.269Z,24.07
2017-09-19T05:57:14.428Z,25.73
2017-09-19T06:02:16.573Z,30.20
2017-09-19T06:07:18.572Z,28.80
2017-09-19T06:12:20.639Z,25.80
2017-09-19T06:17:23.110Z,29.40
2017-09-19T06:22:25.096Z,34.00
2017-09-19T06:27:27.078Z,39.20
2017-09-19T06:32:29.136Z,34.60
2017-09-19T06:37:31.211Z,32.60
2017-09-19T06:42:33.178Z,33.60
2017-09-19T06:47:35.175Z,46.90
2017-09-19T06:52:38.071Z,54.73
2017-09-19T06:57:40.076Z,65.53
2017-09-19T07:02:42.781Z,59.17
2017-09-19T07:07:44.785Z,64.07
2017-09-19T07:12:46.853Z,54.63
2017-09-19T07:17:48.969Z,59.57
2017-09-19T07:22:51.001Z,71.10
2017-09-19T07:27:52.972Z,64.17
2017-09-19T07:32:55.649Z,63.80
2017-09-19T07:37:57.671Z,75.80
2017-09-19T07:42:59.679Z,65.70
2017-09-19T07:48:03.894Z,73.37
2017-09-19T07:53:05.878Z,62.47
2017-09-19T07:58:07.889Z,63.97
2017-09-19T08:03:09.880Z,68.17
2017-09-19T08:08:11.871Z,68.33
2017-09-19T08:13:13.840Z,73.63
2017-09-19T08:18:15.880Z,70.83
2017-09-19T08:23:17.878Z,65.10
2017-09-19T08:28:20.601Z,62.20
2017-09-19T08:33:22.580Z,57.10
2017-09-19T08:38:24.583Z,51.57
2017-09-19T08:43:26.547Z,51.70
2017-09-19T08:48:28.516Z,57.17
2017-09-19T08:53:30.603Z,47.77
2017-09-19T08:58:32.568Z,50.50
2017-09-19T09:03:34.548Z,47.73
2017-09-19T09:08:37.723Z,55.20
2017-09-19T09:13:39.651Z,54.83
2017-09-19T09:18:41.602Z,50.90
2017-09-19T09:23:43.614Z,47.80
2017-09-19T09:28:46.423Z,53.97
2017-09-19T09:33:48.453Z,44.07
2017-09-19T09:38:50.935Z,43.07
2017-09-19T09:43:52.901Z,41.60
2017-09-19T09:48:54.908Z,38.83
2017-09-19T09:53:57.241Z,44.00
2017-09-19T09:58:59.977Z,44.30
2017-09-19T10:04:02.711Z,41.03
2017-09-19T10:09:05.167Z,46.00
2017-09-19T10:14:07.121Z,43.40
2017-09-19T10:19:09.133Z,43.90
2017-09-19T10:24:11.150Z,39.63
2017-09-19T10:29:13.175Z,38.00
2017-09-19T10:34:15.222Z,41.17
2017-09-19T10:39:17.597Z,46.13
2017-09-19T10:44:19.671Z,48.40
2017-09-19T10:49:23.467Z,37.47
2017-09-19T10:54:25.798Z,43.90
2017-09-19T10:59:28.565Z,44.10
2017-09-19T11:04:36.807Z,40.53
2017-09-19T11:09:44.879Z,40.53
2017-09-19T11:14:50.783Z,40.93
2017-09-19T11:19:58.011Z,38.23
2017-09-19T11:25:00.007Z,38.07
2017-09-19T11:30:05.579Z,40.17
2017-09-19T11:35:07.507Z,34.73
2017-09-19T11:40:10.182Z,36.87
2017-09-19T11:45:18.372Z,41.27
2017-09-19T11:50:20.729Z,32.60
2017-09-19T11:55:22.716Z,30.00
2017-09-19T12:00:24.668Z,28.53
2017-09-19T12:05:26.640Z,25.70
2017-09-19T12:10:29.335Z,28.60
2017-09-19T12:15:31.299Z,33.90
2017-09-19T12:20:38.389Z,36.60
2017-09-19T12:25:40.377Z,33.60
2017-09-19T12:30:43.102Z,34.50
2017-09-19T12:35:45.154Z,36.77
2017-09-19T12:40:47.230Z,35.50
2017-09-19T12:45:51.510Z,32.23
2017-09-19T12:50:53.471Z,33.50
2017-09-19T12:55:55.504Z,38.20
2017-09-19T13:00:57.461Z,36.47
2017-09-19T13:05:59.415Z,32.97
2017-09-19T13:11:01.368Z,29.17
2017-09-19T13:16:04.103Z,32.03
2017-09-19T13:21:06.065Z,30.77
2017-09-19T13:26:08.004Z,26.13
2017-09-19T13:31:28.145Z,22.43
2017-09-19T13:36:30.187Z,23.27
2017-09-19T13:41:32.232Z,30.67
2017-09-19T13:46:34.224Z,23.03
2017-09-19T13:51:36.340Z,29.20
2017-09-19T13:56:38.812Z,26.83
2017-09-19T14:01:41.088Z,22.30
2017-09-19T14:06:43.409Z,27.30
2017-09-19T14:11:45.552Z,16.47
2017-09-19T14:16:48.537Z,20.27
2017-09-19T14:21:50.673Z,17.87
2017-09-19T14:26:54.191Z,22.50
2017-09-19T14:31:56.255Z,18.90
2017-09-19T14:36:58.198Z,16.67
2017-09-19T14:42:00.129Z,18.00
2017-09-19T14:47:02.132Z,17.20
2017-09-19T14:52:04.096Z,18.73
2017-09-19T14:57:06.404Z,14.93
2017-09-19T15:02:08.611Z,15.53
2017-09-19T15:07:10.548Z,15.97
2017-09-19T15:12:12.566Z,20.27
2017-09-19T15:17:17.058Z,17.47
2017-09-19T15:22:19.161Z,24.97
2017-09-19T15:27:21.083Z,24.90
2017-09-19T15:32:29.170Z,23.13
2017-09-19T15:37:31.341Z,30.10
2017-09-19T15:42:33.306Z,26.50
2017-09-19T15:47:35.290Z,23.20
2017-09-19T15:52:37.272Z,22.17
2017-09-19T15:57:39.385Z,29.50
2017-09-19T16:02:41.394Z,20.30
2017-09-19T16:07:43.401Z,20.97
2017-09-19T16:12:45.431Z,20.20
2017-09-19T16:17:47.588Z,19.97
2017-09-19T16:22:49.555Z,19.00
2017-09-19T16:27:52.319Z,21.80
2017-09-19T16:32:54.265Z,19.60
2017-09-19T16:37:56.312Z,17.60
2017-09-19T16:42:58.326Z,17.40
2017-09-19T16:48:00.316Z,19.00
2017-09-19T16:53:02.362Z,15.20
2017-09-19T16:58:05.126Z,19.63
2017-09-19T17:03:08.167Z,20.20
2017-09-19T17:08:10.268Z,13.73
2017-09-19T17:13:12.364Z,19.50
2017-09-19T17:18:14.601Z,16.93
2017-09-19T17:23:16.797Z,17.30
2017-09-19T17:28:24.044Z,16.90
2017-09-19T17:33:26.029Z,21.63
2017-09-19T17:38:28.023Z,14.20
2017-09-19T17:43:30.036Z,17.30
2017-09-19T17:48:32.017Z,15.60
2017-09-19T17:53:34.005Z,21.97
2017-09-19T17:58:36.008Z,16.90
2017-09-19T18:03:43.732Z,14.37
2017-09-19T18:08:49.069Z,14.17
2017-09-19T18:13:51.517Z,14.57
2017-09-19T18:18:53.708Z,14.50
2017-09-19T18:23:56.603Z,21.03
2017-09-19T18:28:58.752Z,19.30
2017-09-19T18:34:01.332Z,22.77
2017-09-19T18:39:03.947Z,18.07
2017-09-19T18:44:05.943Z,22.57
2017-09-19T18:49:07.972Z,21.90
2017-09-19T18:54:10.001Z,23.20
2017-09-19T18:59:12.760Z,24.63
2017-09-19T19:04:14.883Z,23.03
2017-09-19T19:09:20.560Z,27.40
2017-09-19T19:14:27.838Z,27.43
2017-09-19T19:19:34.631Z,23.00
2017-09-19T19:24:37.078Z,24.20
2017-09-19T19:29:39.069Z,26.77
2017-09-19T19:34:43.941Z,28.40
2017-09-19T19:39:46.227Z,24.17
2017-09-19T19:44:48.926Z,24.30
2017-09-19T19:49:51.007Z,25.87
2017-09-19T19:54:53.021Z,25.00
2017-09-19T19:59:56.430Z,27.47
2017-09-19T20:04:58.555Z,29.23
2017-09-19T20:10:00.593Z,26.30
2017-09-19T20:15:02.581Z,26.80
2017-09-19T20:20:04.705Z,26.10
2017-09-19T20:25:06.721Z,24.27
2017-09-19T20:30:08.693Z,24.60
2017-09-19T20:35:10.648Z,20.80
2017-09-19T20:40:13.366Z,20.87
2017-09-19T20:45:15.413Z,24.20
2017-09-19T20:50:17.534Z,25.40
2017-09-19T20:55:19.517Z,22.07
2017-09-19T21:00:21.510Z,22.33
2017-09-19T21:05:30.173Z,27.23
2017-09-19T21:10:38.355Z,30.37
2017-09-19T21:15:46.376Z,32.60
2017-09-19T21:20:48.484Z,33.50
2017-09-19T21:25:50.484Z,32.97
2017-09-19T21:30:52.477Z,33.73
2017-09-19T21:35:54.468Z,33.67
2017-09-19T21:40:56.461Z,34.80
2017-09-19T21:45:58.433Z,34.83
2017-09-19T21:51:00.411Z,37.87
2017-09-19T21:56:02.416Z,37.13
2017-09-19T22:01:05.221Z,41.23
2017-09-19T22:06:07.325Z,41.13
2017-09-19T22:11:09.383Z,49.37
2017-09-19T22:16:11.370Z,52.83
2017-09-19T22:21:13.634Z,45.73
2017-09-19T22:26:16.099Z,49.20
2017-09-19T22:31:18.635Z,50.73
2017-09-19T22:36:20.719Z,50.10
2017-09-19T22:41:23.468Z,53.13
2017-09-19T22:46:25.451Z,57.70
2017-09-19T22:51:28.139Z,54.47
2017-09-19T22:56:30.160Z,51.93
2017-09-19T23:01:32.096Z,58.03
2017-09-19T23:06:34.450Z,55.47
2017-09-19T23:11:36.513Z,62.37
2017-09-19T23:16:38.578Z,54.17
2017-09-19T23:21:40.511Z,52.57
2017-09-19T23:26:43.251Z,61.13
2017-09-19T23:31:45.276Z,60.93
2017-09-19T23:36:49.055Z,58.43
2017-09-19T23:41:51.156Z,60.47
2017-09-19T23:46:53.144Z,58.20
2017-09-19T23:51:55.066Z,61.23
2017-09-19T23:56:57.811Z,56.80
